Time;durP1;ratioP1;P1;durP2;ratioP2;P2;SDS_P1;SDS_P2;PMS_P1;PMS_P2;Temp;Humidity;BMP_temperature;BMP_pressure;BME280_temperature;BME280_humidity;BME280_pressure;Samples;Min_cycle;Max_cycle;Signal;HPM_P1;HPM_P2
2020/12/10 00:00:12;;;;;;;6.33;3.37;;;6.30;78.10;;;;;;5033082;28;20026;-64
2020/12/10 00:02:38;;;;;;;4.73;2.70;;;6.30;77.90;;;;;;5032951;28;20025;-64
2020/12/10 00:05:07;;;;;;;4.07;2.87;;;6.30;77.80;;;;;;5032957;28;20394;-64
2020/12/10 00:07:33;;;;;;;5.23;2.67;;;6.30;77.00;;;;;;5032887;28;20789;-64
2020/12/10 00:09:59;;;;;;;5.03;2.70;;;6.20;77.20;;;;;;5033120;28;20057;-67
2020/12/10 00:12:25;;;;;;;6.07;2.70;;;6.20;77.30;;;;;;5032908;28;20040;-63
2020/12/10 00:14:53;;;;;;;4.40;2.60;;;6.30;77.40;;;;;;5033337;28;20041;-64
2020/12/10 00:17:25;;;;;;;4.17;2.77;;;6.20;77.20;;;;;;5033154;28;20490;-64
2020/12/10 00:19:50;;;;;;;3.97;2.77;;;6.20;77.20;;;;;;5032978;28;20067;-63
2020/12/10 00:22:16;;;;;;;3.73;2.83;;;6.20;77.20;;;;;;5032971;28;20104;-65
2020/12/10 00:24:42;;;;;;;4.40;3.00;;;6.20;77.30;;;;;;5032682;28;20025;-66
2020/12/10 00:27:08;;;;;;;3.87;2.87;;;6.20;77.50;;;;;;5032558;28;20037;-66
2020/12/10 00:29:33;;;;;;;4.53;2.97;;;6.20;77.30;;;;;;5032940;28;20048;-63
2020/12/10 00:31:59;;;;;;;6.77;3.50;;;6.20;77.20;;;;;;5032856;28;20033;-63
2020/12/10 00:34:25;;;;;;;5.70;3.73;;;6.20;77.30;;;;;;5033054;28;20021;-63
2020/12/10 00:36:50;;;;;;;8.10;3.80;;;6.20;77.60;;;;;;5033138;28;20036;-65
2020/12/10 00:39:16;;;;;;;5.30;3.90;;;6.20;77.70;;;;;;5032716;28;20026;-66
2020/12/10 00:41:42;;;;;;;7.20;4.70;;;6.20;77.80;;;;;;5032858;28;20034;-66
2020/12/10 00:44:07;;;;;;;6.50;3.87;;;6.20;78.30;;;;;;5032728;28;20072;-66
2020/12/10 00:46:33;;;;;;;6.73;4.70;;;6.20;78.00;;;;;;5032714;28;20394;-63
2020/12/10 00:48:59;;;;;;;5.37;4.20;;;6.20;78.10;;;;;;5032885;28;20033;-63
2020/12/10 00:51:24;;;;;;;6.57;4.33;;;6.20;77.90;;;;;;5032913;28;20021;-63
2020/12/10 00:53:50;;;;;;;5.53;4.23;;;6.20;77.90;;;;;;5033337;28;20557;-64
2020/12/10 00:56:16;;;;;;;7.17;4.40;;;6.20;78.00;;;;;;5037029;28;20021;-63
2020/12/10 00:58:45;;;;;;;7.47;4.03;;;6.20;78.10;;;;;;5036317;28;20116;-65
2020/12/10 01:01:12;;;;;;;7.77;4.40;;;6.10;78.30;;;;;;5036322;28;20482;-65
2020/12/10 01:03:37;;;;;;;6.30;4.80;;;6.10;78.00;;;;;;5036619;28;20029;-65
2020/12/10 01:06:03;;;;;;;7.27;4.97;;;6.10;78.10;;;;;;5034676;28;20124;-66
2020/12/10 01:08:29;;;;;;;9.27;5.77;;;6.00;78.30;;;;;;5036042;28;20029;-65
2020/12/10 01:10:54;;;;;;;8.00;5.23;;;6.00;78.20;;;;;;5036016;28;20028;-63
2020/12/10 01:13:23;;;;;;;7.80;5.20;;;5.90;78.10;;;;;;5036238;28;20053;-64
2020/12/10 01:15:53;;;;;;;10.53;5.00;;;5.90;78.20;;;;;;5036076;28;20059;-65
2020/12/10 01:18:19;;;;;;;10.03;6.00;;;5.90;78.30;;;;;;5035471;28;20045;-63
2020/12/10 01:20:44;;;;;;;10.70;5.93;;;5.90;78.50;;;;;;5036047;28;20041;-65
2020/12/10 01:23:10;;;;;;;9.97;6.83;;;5.80;78.70;;;;;;5035911;28;20025;-65
2020/12/10 01:25:35;;;;;;;12.10;6.23;;;5.80;78.80;;;;;;5035847;28;20061;-66
2020/12/10 01:28:01;;;;;;;10.93;6.37;;;5.80;78.90;;;;;;5035753;28;20042;-65
2020/12/10 01:30:27;;;;;;;10.37;6.67;;;5.70;79.00;;;;;;5035798;28;20017;-65
2020/12/10 01:32:52;;;;;;;14.27;8.00;;;5.70;79.10;;;;;;5035838;28;20568;-65
2020/12/10 01:35:18;;;;;;;13.63;8.37;;;5.70;79.20;;;;;;5035814;28;20490;-63
2020/12/10 01:37:44;;;;;;;12.90;7.63;;;5.70;79.40;;;;;;5035626;28;20474;-64
2020/12/10 01:40:09;;;;;;;12.17;7.73;;;5.70;79.40;;;;;;5035767;28;20057;-63
2020/12/10 01:42:36;;;;;;;14.00;7.57;;;5.60;79.50;;;;;;5035366;28;20033;-63
2020/12/10 01:45:03;;;;;;;14.47;7.70;;;5.60;79.70;;;;;;5035559;28;20021;-63
2020/12/10 01:47:31;;;;;;;12.60;7.77;;;5.60;79.70;;;;;;5035427;28;20498;-64
2020/12/10 01:49:57;;;;;;;11.17;7.70;;;5.60;79.70;;;;;;5035333;28;20017;-65
2020/12/10 01:52:22;;;;;;;12.77;7.50;;;5.50;80.60;;;;;;5035395;28;20032;-63
2020/12/10 01:54:48;;;;;;;9.70;6.70;;;5.50;80.70;;;;;;5035164;28;20032;-63
2020/12/10 01:57:14;;;;;;;10.57;6.50;;;5.50;81.00;;;;;;5035406;28;20021;-64
2020/12/10 01:59:39;;;;;;;10.73;7.00;;;5.50;81.00;;;;;;5031970;28;20101;-64
2020/12/10 02:02:05;;;;;;;12.47;8.17;;;5.50;80.80;;;;;;5032371;28;20383;-64
2020/12/10 02:04:34;;;;;;;13.93;6.93;;;5.50;80.90;;;;;;5033007;28;20022;-65
2020/12/10 02:07:01;;;;;;;16.47;9.63;;;5.50;80.90;;;;;;5033899;28;20034;-65
2020/12/10 02:09:27;;;;;;;10.27;7.10;;;5.50;80.80;;;;;;5033889;28;20392;-65
2020/12/10 02:11:53;;;;;;;11.97;7.37;;;5.50;80.50;;;;;;5034926;28;20027;-66
2020/12/10 02:14:20;;;;;;;55.07;28.03;;;5.40;80.20;;;;;;5034534;28;20029;-65
2020/12/10 02:16:46;;;;;;;29.00;15.50;;;5.40;80.70;;;;;;5034940;28;20025;-63
2020/12/10 02:19:12;;;;;;;21.10;12.63;;;5.30;81.00;;;;;;5034753;28;20053;-63
2020/12/10 02:21:38;;;;;;;14.50;7.50;;;5.30;80.90;;;;;;5034447;28;20414;-63
2020/12/10 02:24:03;;;;;;;14.03;8.27;;;5.30;81.00;;;;;;5034311;28;20030;-64
2020/12/10 02:26:29;;;;;;;12.47;7.23;;;5.30;81.00;;;;;;5034299;28;20029;-63
2020/12/10 02:29:02;;;;;;;6.43;4.73;;;5.30;80.90;;;;;;5034246;28;20498;-63
2020/12/10 02:31:31;;;;;;;5.78;4.10;;;5.30;80.80;;;;;;5034512;28;20474;-65
2020/12/10 02:33:59;;;;;;;3.97;3.00;;;5.30;80.60;;;;;;5034488;28;20436;-63
2020/12/10 02:36:25;;;;;;;5.13;3.27;;;5.30;80.60;;;;;;5034176;28;20033;-63
2020/12/10 02:38:51;;;;;;;6.43;3.37;;;5.30;80.60;;;;;;5034485;28;20021;-63
2020/12/10 02:41:17;;;;;;;5.37;2.97;;;5.30;81.10;;;;;;5034422;28;20488;-64
2020/12/10 02:43:43;;;;;;;5.70;3.40;;;5.40;80.50;;;;;;5034036;28;20022;-66
2020/12/10 02:46:08;;;;;;;4.10;3.40;;;5.40;80.40;;;;;;5034152;28;20109;-65
2020/12/10 02:48:34;;;;;;;4.03;3.00;;;5.40;80.40;;;;;;5034187;28;20045;-66
2020/12/10 02:51:01;;;;;;;5.53;3.10;;;5.40;80.30;;;;;;5033744;28;20035;-63
2020/12/10 02:53:31;;;;;;;3.20;2.87;;;5.40;80.20;;;;;;5034375;28;20045;-65
2020/12/10 02:55:57;;;;;;;5.37;3.50;;;5.40;80.00;;;;;;5034316;28;20030;-65
2020/12/10 02:58:22;;;;;;;3.40;2.70;;;5.40;79.80;;;;;;5033786;28;20029;-63
2020/12/10 03:00:49;;;;;;;3.90;2.97;;;5.40;79.90;;;;;;5034116;28;20025;-65
2020/12/10 03:03:16;;;;;;;5.30;3.17;;;5.40;79.90;;;;;;5034026;28;20056;-64
2020/12/10 03:05:43;;;;;;;4.43;3.00;;;5.40;80.00;;;;;;5033824;28;20467;-63
2020/12/10 03:08:09;;;;;;;4.10;3.07;;;5.40;79.90;;;;;;5033715;28;20049;-63
2020/12/10 03:10:34;;;;;;;3.93;2.67;;;5.40;79.90;;;;;;5034054;28;20386;-63
2020/12/10 03:13:00;;;;;;;3.27;2.50;;;5.40;79.60;;;;;;5033787;28;20029;-63
2020/12/10 03:15:26;;;;;;;3.77;2.73;;;5.40;79.50;;;;;;5033782;28;20053;-65
2020/12/10 03:17:51;;;;;;;4.27;2.70;;;5.50;79.50;;;;;;5033156;28;20124;-65
2020/12/10 03:20:17;;;;;;;4.73;2.60;;;5.50;79.20;;;;;;5033644;28;20029;-65
2020/12/10 03:22:43;;;;;;;4.60;3.20;;;5.50;79.20;;;;;;5033782;28;20029;-64
2020/12/10 03:25:09;;;;;;;3.80;2.90;;;5.50;79.00;;;;;;5033466;28;20040;-65
2020/12/10 03:27:35;;;;;;;4.50;3.03;;;5.50;79.00;;;;;;5033543;28;20087;-64
2020/12/10 03:30:01;;;;;;;4.60;2.87;;;5.50;78.90;;;;;;5033563;28;20037;-63
2020/12/10 03:32:26;;;;;;;3.90;3.00;;;5.50;78.80;;;;;;5033598;28;20493;-65
2020/12/10 03:34:53;;;;;;;3.87;2.77;;;5.50;78.80;;;;;;5033427;28;20029;-65
2020/12/10 03:37:19;;;;;;;4.40;2.87;;;5.50;79.20;;;;;;5033292;28;20021;-66
2020/12/10 03:39:44;;;;;;;3.30;2.70;;;5.50;78.60;;;;;;5033452;28;20047;-66
2020/12/10 03:42:10;;;;;;;3.13;2.73;;;5.50;78.50;;;;;;5033485;28;20076;-68
2020/12/10 03:44:36;;;;;;;4.33;2.77;;;5.50;78.50;;;;;;5033058;28;20038;-66
2020/12/10 03:47:02;;;;;;;4.33;3.10;;;5.50;78.50;;;;;;5033134;28;20382;-63
2020/12/10 03:49:28;;;;;;;4.70;3.10;;;5.50;78.50;;;;;;5033440;28;20116;-63
2020/12/10 03:51:53;;;;;;;4.27;2.90;;;5.50;78.70;;;;;;5033365;28;20025;-64
2020/12/10 03:54:19;;;;;;;3.53;2.80;;;5.50;78.70;;;;;;5032991;28;20030;-66
2020/12/10 03:56:45;;;;;;;3.30;2.60;;;5.50;78.70;;;;;;5031918;28;20037;-63
2020/12/10 03:59:10;;;;;;;3.00;2.53;;;5.60;78.70;;;;;;5032849;28;20467;-63
2020/12/10 04:01:36;;;;;;;3.47;2.63;;;5.50;78.70;;;;;;5033029;28;20107;-63
2020/12/10 04:04:02;;;;;;;4.07;3.03;;;5.60;78.70;;;;;;5033106;28;20022;-63
2020/12/10 04:06:28;;;;;;;4.10;2.80;;;5.60;78.50;;;;;;5033058;28;20032;-63
2020/12/10 04:08:54;;;;;;;6.70;2.67;;;5.60;78.50;;;;;;5033109;28;20030;-64
2020/12/10 04:11:20;;;;;;;5.30;3.00;;;5.60;78.50;;;;;;5032913;28;20030;-64
2020/12/10 04:13:46;;;;;;;3.50;2.57;;;5.60;78.50;;;;;;5033058;28;20033;-63
2020/12/10 04:16:15;;;;;;;4.60;2.80;;;5.60;78.50;;;;;;5032845;28;20037;-63
2020/12/10 04:18:41;;;;;;;2.83;2.30;;;5.60;78.50;;;;;;5032561;28;20087;-63
2020/12/10 04:21:09;;;;;;;3.63;2.53;;;5.70;78.60;;;;;;5032681;28;20030;-63
2020/12/10 04:23:35;;;;;;;4.20;2.50;;;5.70;78.50;;;;;;5032999;28;20104;-64
2020/12/10 04:26:00;;;;;;;4.93;3.00;;;5.70;78.50;;;;;;5031583;28;20460;-63
2020/12/10 04:28:27;;;;;;;4.60;3.00;;;5.70;78.50;;;;;;5033189;28;20037;-63
2020/12/10 04:30:53;;;;;;;6.67;3.20;;;5.70;78.40;;;;;;5036748;28;20406;-64
2020/12/10 04:33:18;;;;;;;7.63;3.50;;;5.70;78.20;;;;;;5036922;28;20026;-63
2020/12/10 04:35:44;;;;;;;5.43;3.40;;;5.70;78.50;;;;;;5037003;28;20025;-64
2020/12/10 04:38:10;;;;;;;3.83;2.73;;;5.70;78.70;;;;;;5036706;28;20385;-64
2020/12/10 04:40:37;;;;;;;5.27;2.93;;;5.70;78.60;;;;;;5036532;28;20454;-63
2020/12/10 04:43:09;;;;;;;3.90;2.77;;;5.70;78.80;;;;;;5036933;28;20366;-63
2020/12/10 04:45:35;;;;;;;2.97;2.30;;;5.70;79.10;;;;;;5035302;28;20104;-64
2020/12/10 04:48:01;;;;;;;4.47;2.60;;;5.70;79.20;;;;;;5035134;28;20195;-63
2020/12/10 04:50:29;;;;;;;6.53;3.17;;;5.70;79.20;;;;;;5036232;28;20019;-64
2020/12/10 04:52:56;;;;;;;4.47;2.97;;;5.70;79.20;;;;;;5036699;28;20044;-63
2020/12/10 04:55:23;;;;;;;3.63;2.63;;;5.70;79.20;;;;;;5036453;28;20032;-63
2020/12/10 04:57:53;;;;;;;3.60;2.67;;;5.70;79.20;;;;;;5036516;28;20079;-63
2020/12/10 05:00:20;;;;;;;4.50;3.17;;;5.70;79.40;;;;;;5036357;28;20608;-63
2020/12/10 05:02:47;;;;;;;5.93;3.60;;;5.80;79.30;;;;;;5036445;28;20026;-63
2020/12/10 05:05:31;;;;;;;5.53;3.63;;;5.80;78.30;;;;;;5036301;28;20034;-63
2020/12/10 05:08:02;;;;;;;6.33;4.17;;;5.70;78.30;;;;;;5036064;28;20033;-63
2020/12/10 05:10:28;;;;;;;6.10;4.00;;;5.70;78.90;;;;;;5035147;28;20389;-63
2020/12/10 05:13:09;;;;;;;7.43;4.77;;;5.70;79.20;;;;;;5036082;28;20026;-63
2020/12/10 05:15:37;;;;;;;6.67;4.27;;;5.70;79.20;;;;;;5035895;28;20020;-63
2020/12/10 05:18:12;;;;;;;4.73;3.90;;;5.60;80.00;;;;;;5036111;28;20140;-65
2020/12/10 05:20:58;;;;;;;6.30;3.80;;;5.60;79.60;;;;;;5036342;28;20438;-64
2020/12/10 05:23:38;;;;;;;4.67;3.40;;;5.60;79.80;;;;;;5036061;28;20064;-64
2020/12/10 05:26:06;;;;;;;4.90;2.87;;;5.60;79.70;;;;;;5035728;28;20462;-64
2020/12/10 05:28:51;;;;;;;4.00;3.13;;;5.50;79.60;;;;;;5036036;28;20034;-64
2020/12/10 05:31:18;;;;;;;6.03;2.90;;;5.60;79.50;;;;;;5035818;28;20060;-64
2020/12/10 05:34:00;;;;;;;4.27;3.10;;;5.60;79.40;;;;;;5035866;28;20397;-63
2020/12/10 05:36:28;;;;;;;4.53;2.80;;;5.60;79.40;;;;;;5035790;28;20029;-64
2020/12/10 05:38:58;;;;;;;3.67;2.97;;;5.60;79.50;;;;;;5035414;28;20025;-64
2020/12/10 05:41:26;;;;;;;3.10;2.60;;;5.60;79.50;;;;;;5035085;28;20090;-64
2020/12/10 05:43:52;;;;;;;4.97;2.73;;;5.60;79.40;;;;;;5035564;28;20029;-64
2020/12/10 05:46:21;;;;;;;4.40;3.20;;;5.60;79.40;;;;;;5035334;28;20108;-64
2020/12/10 05:48:48;;;;;;;4.47;3.10;;;5.60;80.20;;;;;;5035552;28;20041;-64
2020/12/10 05:51:21;;;;;;;4.37;3.07;;;5.60;79.50;;;;;;5035229;28;20071;-64
2020/12/10 05:53:47;;;;;;;;;;;5.60;79.70;;;;;;5035738;28;20052;-64
2020/12/10 05:56:13;;;;;;;5.80;3.40;;;5.60;79.90;;;;;;5035305;28;19905;-64
2020/12/10 05:58:50;;;;;;;5.47;3.80;;;5.60;80.30;;;;;;5035303;28;20120;-64
2020/12/10 06:01:34;;;;;;;4.43;3.37;;;5.60;80.20;;;;;;5035275;28;20157;-64
2020/12/10 06:04:00;;;;;;;4.27;3.53;;;5.60;79.90;;;;;;5035229;28;20071;-64
2020/12/10 06:06:28;;;;;;;5.07;3.97;;;5.60;79.90;;;;;;5035360;28;20080;-63
2020/12/10 06:09:02;;;;;;;5.30;3.80;;;5.50;80.10;;;;;;5034884;28;20033;-63
2020/12/10 06:11:29;;;;;;;5.23;3.60;;;5.50;80.30;;;;;;5035108;28;20021;-65
2020/12/10 06:14:14;;;;;;;6.90;4.10;;;5.60;80.60;;;;;;5034804;28;20049;-65
2020/12/10 06:16:41;;;;;;;6.60;4.13;;;5.60;80.70;;;;;;5034856;28;20529;-63
2020/12/10 06:19:13;;;;;;;6.23;4.20;;;5.60;80.50;;;;;;5034800;28;20053;-64
2020/12/10 06:21:44;;;;;;;5.47;4.00;;;5.60;80.30;;;;;;5035065;28;20041;-65
2020/12/10 06:24:25;;;;;;;7.07;3.83;;;5.60;80.10;;;;;;5033740;28;20014;-63
2020/12/10 06:26:56;;;;;;;6.23;4.37;;;5.60;80.20;;;;;;5034865;28;20448;-63
2020/12/10 06:29:30;;;;;;;6.30;4.60;;;5.60;80.20;;;;;;5033526;28;20040;-63
2020/12/10 06:32:12;;;;;;;9.73;4.73;;;5.60;80.30;;;;;;5034596;28;20040;-65
2020/12/10 06:34:41;;;;;;;6.43;3.95;;;5.60;80.20;;;;;;5034675;28;20076;-64
2020/12/10 06:37:19;;;;;;;5.60;4.30;;;5.60;80.20;;;;;;5034672;28;20057;-65
2020/12/10 06:39:46;;;;;;;6.27;4.50;;;5.60;80.20;;;;;;5034571;28;20406;-65
2020/12/10 06:42:12;;;;;;;5.57;4.37;;;5.70;80.10;;;;;;5033107;28;20025;-65
2020/12/10 06:44:40;;;;;;;6.20;3.83;;;5.70;80.00;;;;;;5034187;28;20117;-61
2020/12/10 06:47:07;;;;;;;6.73;4.53;;;5.70;80.00;;;;;;5033296;28;20037;-63
2020/12/10 06:49:35;;;;;;;5.63;4.27;;;5.80;80.00;;;;;;5034188;28;20474;-60
2020/12/10 06:52:11;;;;;;;6.70;4.70;;;5.80;80.10;;;;;;5033577;28;20108;-61
2020/12/10 06:55:03;;;;;;;6.13;3.77;;;5.80;80.20;;;;;;5034431;28;20025;-62
2020/12/10 06:57:50;;;;;;;5.83;4.00;;;5.80;80.10;;;;;;5034342;28;20033;-61
2020/12/10 07:00:36;;;;;;;7.17;3.70;;;5.80;80.00;;;;;;5034238;28;20026;-62
2020/12/10 07:03:19;;;;;;;9.97;4.70;;;5.90;79.90;;;;;;5033763;28;20021;-61
2020/12/10 07:05:45;;;;;;;6.47;4.32;;;5.90;80.00;;;;;;5032701;28;20049;-60
2020/12/10 07:08:12;;;;;;;8.57;5.10;;;5.90;80.00;;;;;;5032521;28;20067;-60
2020/12/10 07:10:41;;;;;;;8.60;5.47;;;5.90;80.00;;;;;;5033956;28;20064;-63
2020/12/10 07:13:07;;;;;;;8.43;4.87;;;5.90;79.90;;;;;;5032440;28;20437;-65
2020/12/10 07:15:33;;;;;;;8.90;4.93;;;6.00;80.00;;;;;;5033749;28;20116;-60
2020/12/10 07:18:02;;;;;;;5.90;4.23;;;6.00;79.90;;;;;;5033871;28;20072;-60
2020/12/10 07:20:28;;;;;;;9.07;4.47;;;6.00;79.90;;;;;;5032613;28;20095;-60
2020/12/10 07:22:54;;;;;;;6.20;4.70;;;6.00;79.80;;;;;;5033869;28;20026;-60
2020/12/10 07:25:21;;;;;;;6.13;4.60;;;6.10;80.00;;;;;;5033644;28;20036;-60
2020/12/10 07:27:47;;;;;;;6.57;4.17;;;6.10;80.40;;;;;;5033664;28;20041;-60
2020/12/10 07:30:20;;;;;;;5.57;4.10;;;6.10;79.60;;;;;;5033633;28;20372;-62
2020/12/10 07:32:46;;;;;;;;;;;6.10;79.80;;;;;;5032695;28;20021;-60
2020/12/10 07:35:13;;;;;;;7.57;3.87;;;6.10;79.90;;;;;;5033217;28;19975;-62
2020/12/10 07:37:40;;;;;;;5.00;3.97;;;6.20;79.60;;;;;;5032366;28;20034;-65
2020/12/10 07:40:10;;;;;;;7.90;3.47;;;6.20;79.50;;;;;;5033770;28;20104;-65
2020/12/10 07:42:36;;;;;;;4.77;3.63;;;6.20;79.40;;;;;;5031692;28;20504;-62
2020/12/10 07:45:15;;;;;;;5.67;3.90;;;6.20;79.30;;;;;;5033247;28;20097;-64
2020/12/10 07:47:41;;;;;;;4.73;3.63;;;6.20;79.40;;;;;;5032190;28;20033;-65
2020/12/10 07:50:23;;;;;;;4.47;3.50;;;6.30;79.30;;;;;;5033425;28;20083;-65
2020/12/10 07:52:50;;;;;;;5.90;3.60;;;6.30;79.00;;;;;;5032293;28;20504;-62
2020/12/10 07:55:23;;;;;;;5.87;3.70;;;6.30;78.70;;;;;;5032992;28;20083;-62
2020/12/10 07:58:09;;;;;;;6.33;4.13;;;6.30;78.50;;;;;;5033070;28;20033;-62
2020/12/10 08:00:35;;;;;;;5.47;2.83;;;6.40;78.40;;;;;;5032493;28;20072;-65
2020/12/10 08:03:22;;;;;;;4.53;3.50;;;6.40;78.40;;;;;;5033275;28;20026;-64
2020/12/10 08:06:12;;;;;;;5.37;3.43;;;6.40;78.30;;;;;;5033197;28;20022;-65
2020/12/10 08:08:55;;;;;;;7.67;3.17;;;6.40;78.10;;;;;;5033418;28;20034;-65
2020/12/10 08:11:31;;;;;;;6.20;4.35;;;6.40;78.00;;;;;;5031517;28;20498;-65
2020/12/10 08:14:06;;;;;;;5.37;4.10;;;6.50;77.90;;;;;;5032941;28;20029;-65
2020/12/10 08:16:50;;;;;;;5.47;4.10;;;6.50;77.70;;;;;;5032833;28;20108;-66
2020/12/10 08:19:25;;;;;;;7.10;4.30;;;6.60;77.80;;;;;;5032882;28;20045;-65
2020/12/10 08:21:51;;;;;;;6.80;4.13;;;6.60;77.80;;;;;;5032003;28;20087;-65
2020/12/10 08:24:47;;;;;;;11.13;4.37;;;6.60;77.80;;;;;;5032817;28;20017;-65
2020/12/10 08:27:15;;;;;;;9.13;4.40;;;6.60;77.90;;;;;;5032870;28;20026;-65
2020/12/10 08:30:03;;;;;;;7.67;3.90;;;6.70;77.80;;;;;;5033028;28;20447;-65
2020/12/10 08:32:29;;;;;;;5.47;3.40;;;6.80;77.70;;;;;;5032912;28;20101;-65
2020/12/10 08:35:06;;;;;;;4.40;3.03;;;6.80;77.70;;;;;;5033130;28;20064;-66
2020/12/10 08:37:39;;;;;;;4.60;3.53;;;6.80;77.70;;;;;;5033133;28;20071;-65
2020/12/10 08:40:06;;;;;;;6.77;3.10;;;6.80;77.70;;;;;;5032756;28;20124;-65
2020/12/10 08:42:32;;;;;;;7.50;4.00;;;6.90;77.70;;;;;;5032869;28;20025;-65
2020/12/10 08:45:00;;;;;;;8.77;3.60;;;6.90;77.40;;;;;;5032735;28;20049;-66
2020/12/10 08:47:28;;;;;;;8.60;4.70;;;6.90;77.20;;;;;;5032822;28;20565;-65
2020/12/10 08:52:58;;;;;;;6.93;4.90;;;7.00;77.10;;;;;;5032664;28;20061;-65
2020/12/10 08:55:35;;;;;;;7.23;4.57;;;7.10;77.10;;;;;;5032873;28;20026;-65
2020/12/10 08:58:01;;;;;;;4.67;3.37;;;7.10;77.00;;;;;;5032796;28;20076;-65
2020/12/10 09:00:27;;;;;;;5.37;3.17;;;7.10;76.90;;;;;;5031405;28;20033;-65
2020/12/10 09:02:55;;;;;;;5.17;2.87;;;7.10;76.70;;;;;;5032716;28;20032;-65
2020/12/10 09:05:20;;;;;;;3.77;3.00;;;7.20;76.60;;;;;;5032232;28;20034;-66
2020/12/10 09:07:46;;;;;;;5.23;3.23;;;7.20;76.50;;;;;;5032528;28;20421;-65
2020/12/10 09:10:29;;;;;;;4.63;3.43;;;7.30;76.50;;;;;;5032637;28;20033;-65
2020/12/10 09:12:59;;;;;;;9.73;3.53;;;7.30;76.60;;;;;;5017251;28;20037;-65
2020/12/10 09:15:25;;;;;;;8.97;4.17;;;7.40;76.40;;;;;;5033787;28;20022;-65
2020/12/10 09:17:51;;;;;;;11.37;4.23;;;7.40;76.40;;;;;;5035905;28;20057;-65
2020/12/10 09:20:18;;;;;;;6.40;4.20;;;7.40;76.40;;;;;;5018825;28;20505;-65
2020/12/10 09:22:44;;;;;;;5.57;3.73;;;7.50;76.40;;;;;;5035975;28;20082;-65
2020/12/10 09:25:09;;;;;;;5.30;3.77;;;7.50;76.20;;;;;;5033889;28;20029;-63
2020/12/10 09:27:40;;;;;;;3.90;2.83;;;7.60;76.20;;;;;;5034704;28;20122;-62
2020/12/10 09:30:07;;;;;;;4.43;2.27;;;7.60;76.20;;;;;;5033806;28;20493;-66
2020/12/10 09:32:35;;;;;;;3.17;2.30;;;7.60;76.00;;;;;;5053631;28;20072;-65
2020/12/10 09:35:04;;;;;;;3.90;2.33;;;7.60;76.20;;;;;;5053923;28;20283;-65
2020/12/10 09:37:30;;;;;;;6.07;2.27;;;7.70;75.60;;;;;;5055193;28;20032;-65
2020/12/10 09:40:06;;;;;;;4.53;2.43;;;7.70;75.60;;;;;;5054763;28;20366;-65
2020/12/10 09:42:34;;;;;;;3.40;2.30;;;7.70;75.60;;;;;;5054861;28;20028;-65
2020/12/10 09:45:15;;;;;;;;;;;7.70;75.60;;;;;;5055024;28;20120;-65
2020/12/10 09:47:44;;;;;;;6.70;3.17;;;7.70;75.50;;;;;;5054589;28;20011;-66
2020/12/10 09:50:19;;;;;;;6.27;3.70;;;7.70;75.50;;;;;;5054723;28;20036;-65
2020/12/10 09:52:53;;;;;;;9.80;4.10;;;7.70;75.50;;;;;;5054639;28;20036;-65
2020/12/10 09:55:38;;;;;;;5.63;3.87;;;7.80;75.70;;;;;;5054755;28;20033;-65
2020/12/10 09:58:04;;;;;;;6.87;4.27;;;7.80;76.10;;;;;;5054635;28;20037;-65
2020/12/10 10:00:30;;;;;;;5.33;3.50;;;7.80;75.70;;;;;;5054837;28;20063;-68
2020/12/10 10:02:55;;;;;;;6.93;3.63;;;7.80;75.50;;;;;;5054617;28;20048;-65
2020/12/10 10:05:24;;;;;;;4.67;3.80;;;7.80;75.50;;;;;;5054315;28;20078;-68
2020/12/10 10:07:51;;;;;;;6.47;4.17;;;7.80;75.60;;;;;;5054234;28;20040;-66
2020/12/10 10:10:27;;;;;;;5.13;3.80;;;7.90;75.60;;;;;;5053442;28;20021;-68
2020/12/10 10:12:54;;;;;;;5.83;3.37;;;7.90;75.70;;;;;;5052639;28;20036;-65
2020/12/10 10:15:25;;;;;;;5.50;3.53;;;7.90;75.60;;;;;;5045348;28;20029;-65
2020/12/10 10:18:01;;;;;;;3.60;2.80;;;8.00;75.50;;;;;;5043417;28;20524;-65
2020/12/10 10:20:27;;;;;;;3.77;2.67;;;8.10;75.30;;;;;;5046491;28;20017;-65
2020/12/10 10:22:56;;;;;;;3.93;2.63;;;8.30;75.00;;;;;;5052258;28;20031;-64
2020/12/10 10:25:22;;;;;;;5.63;3.33;;;8.50;74.60;;;;;;5052151;28;20029;-65
2020/12/10 10:27:47;;;;;;;7.37;2.60;;;8.70;73.80;;;;;;5053030;28;20040;-65
2020/12/10 10:30:13;;;;;;;4.03;2.80;;;9.00;73.20;;;;;;5053714;28;20025;-65
2020/12/10 10:32:52;;;;;;;3.53;2.70;;;9.20;72.50;;;;;;5054129;28;20033;-65
2020/12/10 10:35:18;;;;;;;3.73;2.87;;;9.40;72.30;;;;;;5054374;28;20045;-65
2020/12/10 10:37:45;;;;;;;2.77;2.30;;;9.60;71.40;;;;;;5054024;28;20114;-65
2020/12/10 10:40:11;;;;;;;4.80;2.27;;;9.70;70.80;;;;;;5052753;28;20017;-65
2020/12/10 10:42:38;;;;;;;5.90;2.50;;;9.80;69.50;;;;;;5054348;28;20516;-65
2020/12/10 10:45:05;;;;;;;2.30;1.90;;;9.90;69.40;;;;;;5054368;28;20532;-65
2020/12/10 10:47:31;;;;;;;4.20;3.03;;;9.90;69.50;;;;;;5053104;28;20118;-65
2020/12/10 10:49:57;;;;;;;4.90;3.43;;;10.00;69.10;;;;;;5054184;28;20072;-65
2020/12/10 10:52:27;;;;;;;3.70;2.20;;;10.00;69.10;;;;;;5054181;28;20025;-65
2020/12/10 10:54:53;;;;;;;3.77;1.97;;;10.00;68.70;;;;;;5054249;28;20397;-65
2020/12/10 10:57:21;;;;;;;3.58;2.25;;;10.10;68.40;;;;;;5054229;28;20025;-65
2020/12/10 10:59:46;;;;;;;3.47;1.93;;;10.20;68.00;;;;;;5054172;28;20045;-65
2020/12/10 11:02:13;;;;;;;3.97;1.83;;;10.20;67.70;;;;;;5053874;28;20466;-65
2020/12/10 11:04:40;;;;;;;3.77;1.87;;;10.20;67.90;;;;;;5053848;28;20516;-65
2020/12/10 11:07:06;;;;;;;3.17;1.90;;;10.20;67.90;;;;;;5053915;28;20386;-65
2020/12/10 11:09:32;;;;;;;2.60;1.60;;;10.20;68.10;;;;;;5054006;28;20029;-65
2020/12/10 11:11:58;;;;;;;6.53;1.83;;;10.10;68.00;;;;;;5053940;28;20036;-65
2020/12/10 11:14:24;;;;;;;3.07;2.10;;;10.10;68.10;;;;;;5053977;28;20108;-68
2020/12/10 11:16:56;;;;;;;2.63;1.75;;;10.10;67.90;;;;;;5053782;28;20442;-65
2020/12/10 11:19:23;;;;;;;3.10;2.17;;;10.10;68.30;;;;;;5053512;28;20052;-65
2020/12/10 11:21:51;;;;;;;7.90;3.33;;;10.00;68.40;;;;;;5053878;28;20027;-64
2020/12/10 11:24:17;;;;;;;43.58;6.55;;;10.00;68.40;;;;;;5050540;28;20029;-65
2020/12/10 11:26:44;;;;;;;5.30;3.60;;;10.00;68.60;;;;;;5050468;28;20033;-65
2020/12/10 11:29:10;;;;;;;8.53;5.83;;;10.00;68.50;;;;;;5051444;28;20024;-65
2020/12/10 11:31:36;;;;;;;11.13;6.73;;;10.00;68.10;;;;;;5053264;28;20025;-65
2020/12/10 11:34:01;;;;;;;6.00;3.70;;;10.00;68.10;;;;;;5051354;28;20390;-66
2020/12/10 11:36:28;;;;;;;3.95;2.72;;;9.90;68.00;;;;;;5049116;28;20082;-65
2020/12/10 11:39:03;;;;;;;2.53;1.73;;;9.90;68.30;;;;;;5052158;28;20112;-64
2020/12/10 11:41:29;;;;;;;3.67;2.20;;;9.90;68.30;;;;;;5053480;28;20021;-64
2020/12/10 11:44:14;;;;;;;2.87;1.97;;;9.90;68.40;;;;;;5053401;28;20033;-65
2020/12/10 11:46:41;;;;;;;1.93;1.17;;;9.80;68.40;;;;;;5053262;28;20037;-65
2020/12/10 11:49:07;;;;;;;1.10;0.90;;;9.80;67.70;;;;;;5053205;28;20087;-65
2020/12/10 11:51:38;;;;;;;2.07;1.10;;;9.80;67.10;;;;;;5052992;28;20462;-65
2020/12/10 11:54:04;;;;;;;1.90;1.37;;;9.80;67.00;;;;;;5053030;28;20396;-64
2020/12/10 11:56:34;;;;;;;1.97;1.30;;;9.80;67.10;;;;;;5053056;28;20029;-65
2020/12/10 11:59:10;;;;;;;2.97;1.30;;;9.80;66.60;;;;;;5053187;28;20083;-65
2020/12/10 12:01:39;;;;;;;2.60;1.53;;;9.80;66.70;;;;;;5053268;28;20018;-68
2020/12/10 12:04:06;;;;;;;1.67;1.20;;;9.80;66.60;;;;;;5053006;28;20029;-65
2020/12/10 12:06:32;;;;;;;1.93;1.03;;;9.80;65.50;;;;;;5052687;28;20037;-65
2020/12/10 12:09:01;;;;;;;1.50;1.10;;;9.80;65.90;;;;;;5053356;28;20025;-65
2020/12/10 12:11:29;;;;;;;2.50;1.10;;;9.80;65.10;;;;;;5053340;28;20036;-65
2020/12/10 12:13:55;;;;;;;2.53;1.23;;;9.90;64.80;;;;;;5053048;28;20091;-65
2020/12/10 12:16:21;;;;;;;1.93;1.00;;;9.90;65.10;;;;;;5053002;28;20037;-65
2020/12/10 12:18:47;;;;;;;1.40;1.10;;;9.90;65.30;;;;;;5052830;28;20041;-65
2020/12/10 12:21:29;;;;;;;1.20;0.90;;;9.90;65.40;;;;;;5053663;28;20414;-64
2020/12/10 12:24:16;;;;;;;1.30;1.10;;;9.90;64.20;;;;;;5053035;28;20017;-64
2020/12/10 12:26:42;;;;;;;1.20;0.90;;;9.90;64.40;;;;;;5052916;28;20632;-64
2020/12/10 12:29:07;;;;;;;2.50;1.10;;;9.90;64.00;;;;;;5050776;28;20033;-65
2020/12/10 12:31:36;;;;;;;1.30;0.97;;;9.90;62.90;;;;;;5050153;28;20036;-64
2020/12/10 12:34:10;;;;;;;1.90;1.30;;;9.90;63.80;;;;;;5049894;28;20498;-64
2020/12/10 12:36:37;;;;;;;1.53;1.10;;;9.90;64.00;;;;;;5051001;28;20584;-64
2020/12/10 12:39:04;;;;;;;4.03;1.40;;;9.90;63.70;;;;;;5052582;28;20092;-64
2020/12/10 12:41:54;;;;;;;1.83;1.20;;;10.00;64.00;;;;;;5052719;28;20033;-64
2020/12/10 12:44:20;;;;;;;1.60;0.90;;;10.00;63.60;;;;;;5052258;28;20021;-64
2020/12/10 12:46:49;;;;;;;1.17;0.80;;;10.00;63.40;;;;;;5052492;28;20028;-64
2020/12/10 12:49:15;;;;;;;1.20;0.80;;;10.00;62.60;;;;;;5052600;28;20043;-64
2020/12/10 12:51:41;;;;;;;1.20;0.90;;;10.00;63.10;;;;;;5055889;28;20021;-64
2020/12/10 12:54:07;;;;;;;2.87;1.07;;;9.90;62.40;;;;;;5056096;28;20405;-64
2020/12/10 12:56:33;;;;;;;1.37;0.90;;;9.90;62.80;;;;;;5056134;28;20043;-64
2020/12/10 12:58:59;;;;;;;1.20;0.80;;;9.90;62.80;;;;;;5056020;28;20583;-64
2020/12/10 13:01:40;;;;;;;3.60;1.10;;;9.90;62.70;;;;;;5056165;28;20040;-65
2020/12/10 13:04:16;;;;;;;2.13;1.17;;;9.90;62.00;;;;;;5056277;28;20029;-64
2020/12/10 13:06:48;;;;;;;4.18;1.45;;;9.90;62.20;;;;;;5055803;28;20048;-64